sensor_id;sensor_type;location;lat;lon;timestamp;P1;durP1;ratioP1;P2;durP2;ratioP2
32365;SDS011;18837;46.832;16.838;2022-11-15T00:35:47;35.97;;;23.17;;
32365;SDS011;18837;46.832;16.838;2022-11-15T00:41:34;37.17;;;22.77;;
32365;SDS011;18837;46.832;16.838;2022-11-15T05:45:50;29.60;;;20.20;;
32365;SDS011;18837;46.832;16.838;2022-11-15T05:48:19;27.00;;;17.73;;
32365;SDS011;18837;46.832;16.838;2022-11-15T05:50:51;27.03;;;18.37;;
32365;SDS011;18837;46.832;16.838;2022-11-15T05:53:20;28.40;;;20.00;;
32365;SDS011;18837;46.832;16.838;2022-11-15T06:06:49;30.87;;;20.90;;
32365;SDS011;18837;46.832;16.838;2022-11-15T06:15:49;32.37;;;20.40;;
32365;SDS011;18837;46.832;16.838;2022-11-15T07:33:33;25.97;;;17.20;;
32365;SDS011;18837;46.832;16.838;2022-11-15T07:35:59;25.90;;;20.27;;
32365;SDS011;18837;46.832;16.838;2022-11-15T08:05:12;26.73;;;17.27;;
32365;SDS011;18837;46.832;16.838;2022-11-15T08:14:22;25.23;;;16.67;;
32365;SDS011;18837;46.832;16.838;2022-11-15T08:35:38;24.10;;;16.30;;
32365;SDS011;18837;46.832;16.838;2022-11-15T08:38:04;24.00;;;16.47;;
32365;SDS011;18837;46.832;16.838;2022-11-15T08:40:30;22.43;;;15.33;;
32365;SDS011;18837;46.832;16.838;2022-11-15T08:51:19;22.63;;;15.97;;
32365;SDS011;18837;46.832;16.838;2022-11-15T08:53:44;25.00;;;16.97;;
32365;SDS011;18837;46.832;16.838;2022-11-15T08:56:11;24.50;;;16.70;;
32365;SDS011;18837;46.832;16.838;2022-11-15T08:58:38;26.57;;;17.13;;
32365;SDS011;18837;46.832;16.838;2022-11-15T09:01:05;22.80;;;16.07;;
32365;SDS011;18837;46.832;16.838;2022-11-15T09:06:33;23.53;;;16.70;;
32365;SDS011;18837;46.832;16.838;2022-11-15T09:09:18;23.93;;;17.23;;
32365;SDS011;18837;46.832;16.838;2022-11-15T09:12:21;25.00;;;16.67;;
32365;SDS011;18837;46.832;16.838;2022-11-15T09:14:51;24.67;;;17.10;;
32365;SDS011;18837;46.832;16.838;2022-11-15T09:23:54;24.70;;;17.07;;
32365;SDS011;18837;46.832;16.838;2022-11-15T09:26:45;25.77;;;17.10;;
32365;SDS011;18837;46.832;16.838;2022-11-15T09:29:24;22.70;;;16.50;;
32365;SDS011;18837;46.832;16.838;2022-11-15T09:31:53;25.27;;;16.83;;
32365;SDS011;18837;46.832;16.838;2022-11-15T09:34:26;21.37;;;16.03;;
32365;SDS011;18837;46.832;16.838;2022-11-15T09:39:41;22.77;;;16.27;;
32365;SDS011;18837;46.832;16.838;2022-11-15T09:45:33;22.10;;;15.67;;
32365;SDS011;18837;46.832;16.838;2022-11-15T09:58:02;20.93;;;15.87;;
32365;SDS011;18837;46.832;16.838;2022-11-15T10:01:10;22.53;;;16.50;;
32365;SDS011;18837;46.832;16.838;2022-11-15T10:04:09;21.63;;;16.47;;
32365;SDS011;18837;46.832;16.838;2022-11-15T10:06:58;19.90;;;15.27;;
32365;SDS011;18837;46.832;16.838;2022-11-15T10:09:38;21.17;;;15.70;;
32365;SDS011;18837;46.832;16.838;2022-11-15T10:15:09;21.07;;;15.87;;
32365;SDS011;18837;46.832;16.838;2022-11-15T10:18:18;23.37;;;17.10;;
32365;SDS011;18837;46.832;16.838;2022-11-15T10:24:13;22.83;;;16.17;;
32365;SDS011;18837;46.832;16.838;2022-11-15T10:33:17;21.10;;;16.03;;
32365;SDS011;18837;46.832;16.838;2022-11-15T10:41:15;21.37;;;16.47;;
32365;SDS011;18837;46.832;16.838;2022-11-15T10:43:41;22.57;;;17.17;;
32365;SDS011;18837;46.832;16.838;2022-11-15T10:49:17;22.07;;;16.70;;
32365;SDS011;18837;46.832;16.838;2022-11-15T10:57:37;23.13;;;16.87;;
32365;SDS011;18837;46.832;16.838;2022-11-15T11:00:47;22.30;;;16.43;;
32365;SDS011;18837;46.832;16.838;2022-11-15T11:12:16;21.27;;;16.40;;
32365;SDS011;18837;46.832;16.838;2022-11-15T11:14:59;21.17;;;15.47;;
32365;SDS011;18837;46.832;16.838;2022-11-15T12:17:50;21.53;;;16.43;;
32365;SDS011;18837;46.832;16.838;2022-11-15T12:20:20;23.37;;;16.83;;
32365;SDS011;18837;46.832;16.838;2022-11-15T12:23:14;21.70;;;16.10;;
32365;SDS011;18837;46.832;16.838;2022-11-15T14:45:34;20.40;;;15.37;;
32365;SDS011;18837;46.832;16.838;2022-11-15T14:51:11;18.60;;;14.80;;
32365;SDS011;18837;46.832;16.838;2022-11-15T14:53:38;18.40;;;15.03;;
32365;SDS011;18837;46.832;16.838;2022-11-15T14:56:13;20.43;;;15.33;;
32365;SDS011;18837;46.832;16.838;2022-11-15T14:58:42;20.30;;;14.70;;
32365;SDS011;18837;46.832;16.838;2022-11-15T15:01:24;18.27;;;14.77;;
32365;SDS011;18837;46.832;16.838;2022-11-15T15:10:33;20.33;;;15.23;;
32365;SDS011;18837;46.832;16.838;2022-11-15T15:13:06;20.13;;;15.20;;
32365;SDS011;18837;46.832;16.838;2022-11-15T15:15:44;19.80;;;15.37;;
32365;SDS011;18837;46.832;16.838;2022-11-15T15:18:20;20.20;;;15.20;;
32365;SDS011;18837;46.832;16.838;2022-11-15T15:25:59;20.23;;;16.23;;
32365;SDS011;18837;46.832;16.838;2022-11-15T15:28:25;20.90;;;14.97;;
32365;SDS011;18837;46.832;16.838;2022-11-15T15:30:51;19.57;;;15.30;;
32365;SDS011;18837;46.832;16.838;2022-11-15T15:33:17;19.60;;;15.27;;
32365;SDS011;18837;46.832;16.838;2022-11-15T15:35:43;21.50;;;16.10;;
32365;SDS011;18837;46.832;16.838;2022-11-15T15:44:22;21.47;;;16.50;;
32365;SDS011;18837;46.832;16.838;2022-11-15T15:46:48;22.07;;;15.77;;
32365;SDS011;18837;46.832;16.838;2022-11-15T15:49:14;19.03;;;15.77;;
32365;SDS011;18837;46.832;16.838;2022-11-15T15:51:39;22.17;;;16.77;;
32365;SDS011;18837;46.832;16.838;2022-11-15T15:54:21;22.37;;;16.73;;
32365;SDS011;18837;46.832;16.838;2022-11-15T16:00:00;21.70;;;15.93;;
32365;SDS011;18837;46.832;16.838;2022-11-15T16:02:26;17.67;;;14.70;;
32365;SDS011;18837;46.832;16.838;2022-11-15T16:04:55;19.17;;;15.67;;
32365;SDS011;18837;46.832;16.838;2022-11-15T16:07:21;20.77;;;15.30;;
32365;SDS011;18837;46.832;16.838;2022-11-15T16:09:53;18.80;;;15.57;;
32365;SDS011;18837;46.832;16.838;2022-11-15T16:18:48;19.90;;;15.60;;
32365;SDS011;18837;46.832;16.838;2022-11-15T16:21:14;21.03;;;15.53;;
32365;SDS011;18837;46.832;16.838;2022-11-15T16:23:40;20.57;;;15.27;;
32365;SDS011;18837;46.832;16.838;2022-11-15T16:26:18;20.00;;;15.27;;
32365;SDS011;18837;46.832;16.838;2022-11-15T16:28:52;20.47;;;15.30;;
32365;SDS011;18837;46.832;16.838;2022-11-15T16:34:08;19.93;;;15.90;;
32365;SDS011;18837;46.832;16.838;2022-11-15T16:36:34;21.07;;;16.30;;
32365;SDS011;18837;46.832;16.838;2022-11-15T16:39:00;22.13;;;16.43;;
32365;SDS011;18837;46.832;16.838;2022-11-15T16:41:29;19.73;;;15.57;;
32365;SDS011;18837;46.832;16.838;2022-11-15T16:43:56;20.27;;;15.57;;
32365;SDS011;18837;46.832;16.838;2022-11-15T16:52:43;18.97;;;14.63;;
32365;SDS011;18837;46.832;16.838;2022-11-15T16:55:09;19.73;;;15.53;;
32365;SDS011;18837;46.832;16.838;2022-11-15T16:57:35;22.27;;;15.87;;
32365;SDS011;18837;46.832;16.838;2022-11-15T17:00:01;20.43;;;16.17;;
32365;SDS011;18837;46.832;16.838;2022-11-15T17:02:27;19.87;;;15.63;;
32365;SDS011;18837;46.832;16.838;2022-11-15T17:04:53;19.27;;;15.60;;
32365;SDS011;18837;46.832;16.838;2022-11-15T17:10:14;19.13;;;14.63;;
32365;SDS011;18837;46.832;16.838;2022-11-15T17:12:40;21.80;;;16.37;;
32365;SDS011;18837;46.832;16.838;2022-11-15T17:15:06;19.30;;;15.57;;
32365;SDS011;18837;46.832;16.838;2022-11-15T17:17:35;19.30;;;15.27;;
32365;SDS011;18837;46.832;16.838;2022-11-15T17:20:01;19.30;;;14.83;;
32365;SDS011;18837;46.832;16.838;2022-11-15T17:26:12;20.17;;;15.43;;
32365;SDS011;18837;46.832;16.838;2022-11-15T17:28:39;20.53;;;15.07;;
32365;SDS011;18837;46.832;16.838;2022-11-15T17:31:09;23.73;;;17.93;;
32365;SDS011;18837;46.832;16.838;2022-11-15T17:33:36;21.63;;;16.27;;
32365;SDS011;18837;46.832;16.838;2022-11-15T17:36:04;20.80;;;16.90;;
32365;SDS011;18837;46.832;16.838;2022-11-15T17:38:31;20.83;;;16.77;;
32365;SDS011;18837;46.832;16.838;2022-11-15T17:41:15;21.57;;;15.80;;
32365;SDS011;18837;46.832;16.838;2022-11-15T17:43:41;19.40;;;15.83;;
32365;SDS011;18837;46.832;16.838;2022-11-15T17:46:10;19.33;;;15.23;;
32365;SDS011;18837;46.832;16.838;2022-11-15T17:48:38;19.67;;;15.93;;
32365;SDS011;18837;46.832;16.838;2022-11-15T17:51:05;19.90;;;15.93;;
32365;SDS011;18837;46.832;16.838;2022-11-15T17:53:38;21.17;;;15.70;;
32365;SDS011;18837;46.832;16.838;2022-11-15T18:01:57;21.77;;;15.73;;
32365;SDS011;18837;46.832;16.838;2022-11-15T18:04:23;19.90;;;15.37;;
32365;SDS011;18837;46.832;16.838;2022-11-15T18:06:52;20.87;;;16.70;;
32365;SDS011;18837;46.832;16.838;2022-11-15T18:09:19;20.53;;;15.53;;
32365;SDS011;18837;46.832;16.838;2022-11-15T18:11:46;21.73;;;16.47;;
32365;SDS011;18837;46.832;16.838;2022-11-15T18:14:33;21.77;;;17.10;;
32365;SDS011;18837;46.832;16.838;2022-11-15T18:16:59;21.57;;;16.50;;
32365;SDS011;18837;46.832;16.838;2022-11-15T18:19:25;21.20;;;16.83;;
32365;SDS011;18837;46.832;16.838;2022-11-15T18:21:51;23.37;;;16.80;;
32365;SDS011;18837;46.832;16.838;2022-11-15T18:24:32;21.03;;;16.27;;
32365;SDS011;18837;46.832;16.838;2022-11-15T18:26:59;21.20;;;16.37;;
32365;SDS011;18837;46.832;16.838;2022-11-15T18:29:26;22.00;;;16.27;;
32365;SDS011;18837;46.832;16.838;2022-11-15T18:37:58;23.60;;;15.63;;
32365;SDS011;18837;46.832;16.838;2022-11-15T18:40:25;23.07;;;17.33;;
32365;SDS011;18837;46.832;16.838;2022-11-15T18:42:52;22.73;;;16.83;;
32365;SDS011;18837;46.832;16.838;2022-11-15T18:53:09;20.60;;;15.63;;
32365;SDS011;18837;46.832;16.838;2022-11-15T18:56:03;24.20;;;16.77;;
32365;SDS011;18837;46.832;16.838;2022-11-15T19:03:45;21.33;;;16.43;;
32365;SDS011;18837;46.832;16.838;2022-11-15T19:12:23;21.53;;;15.13;;
32365;SDS011;18837;46.832;16.838;2022-11-15T19:14:49;20.10;;;16.13;;
32365;SDS011;18837;46.832;16.838;2022-11-15T19:17:15;22.17;;;16.17;;
32365;SDS011;18837;46.832;16.838;2022-11-15T19:19:41;22.73;;;16.80;;
32365;SDS011;18837;46.832;16.838;2022-11-15T19:22:09;23.33;;;17.60;;
32365;SDS011;18837;46.832;16.838;2022-11-15T19:27:52;19.97;;;15.83;;
32365;SDS011;18837;46.832;16.838;2022-11-15T19:30:18;20.77;;;16.47;;
32365;SDS011;18837;46.832;16.838;2022-11-15T19:32:44;20.57;;;15.97;;
32365;SDS011;18837;46.832;16.838;2022-11-15T19:35:16;22.83;;;16.20;;
32365;SDS011;18837;46.832;16.838;2022-11-15T19:37:42;18.93;;;14.57;;
32365;SDS011;18837;46.832;16.838;2022-11-15T19:52:08;20.77;;;15.80;;
32365;SDS011;18837;46.832;16.838;2022-11-15T19:54:41;19.57;;;15.33;;
32365;SDS011;18837;46.832;16.838;2022-11-15T19:57:34;20.83;;;15.53;;
32365;SDS011;18837;46.832;16.838;2022-11-15T20:00:15;20.00;;;16.00;;
32365;SDS011;18837;46.832;16.838;2022-11-15T20:02:41;19.60;;;15.67;;
32365;SDS011;18837;46.832;16.838;2022-11-15T20:05:06;18.53;;;15.57;;
32365;SDS011;18837;46.832;16.838;2022-11-15T20:07:32;19.67;;;15.17;;
32365;SDS011;18837;46.832;16.838;2022-11-15T20:10:02;22.17;;;15.73;;
32365;SDS011;18837;46.832;16.838;2022-11-15T20:12:31;23.10;;;17.43;;
32365;SDS011;18837;46.832;16.838;2022-11-15T20:32:16;20.50;;;15.70;;
32365;SDS011;18837;46.832;16.838;2022-11-15T20:37:26;19.40;;;14.80;;
32365;SDS011;18837;46.832;16.838;2022-11-15T20:39:52;18.67;;;15.53;;
32365;SDS011;18837;46.832;16.838;2022-11-15T20:42:18;17.60;;;14.33;;
32365;SDS011;18837;46.832;16.838;2022-11-15T20:44:47;19.83;;;14.73;;
32365;SDS011;18837;46.832;16.838;2022-11-15T20:47:15;20.00;;;14.83;;
32365;SDS011;18837;46.832;16.838;2022-11-15T20:55:40;18.80;;;14.67;;
32365;SDS011;18837;46.832;16.838;2022-11-15T20:58:23;20.57;;;15.43;;
32365;SDS011;18837;46.832;16.838;2022-11-15T21:00:54;17.93;;;14.50;;
32365;SDS011;18837;46.832;16.838;2022-11-15T21:03:20;18.87;;;14.80;;
32365;SDS011;18837;46.832;16.838;2022-11-15T21:05:46;20.07;;;15.13;;
32365;SDS011;18837;46.832;16.838;2022-11-15T21:08:27;20.47;;;15.27;;
32365;SDS011;18837;46.832;16.838;2022-11-15T21:11:16;19.07;;;14.43;;
32365;SDS011;18837;46.832;16.838;2022-11-15T21:14:01;18.23;;;14.17;;
32365;SDS011;18837;46.832;16.838;2022-11-15T21:16:27;19.13;;;14.67;;
32365;SDS011;18837;46.832;16.838;2022-11-15T21:18:53;18.83;;;14.83;;
32365;SDS011;18837;46.832;16.838;2022-11-15T21:21:19;17.50;;;14.00;;
32365;SDS011;18837;46.832;16.838;2022-11-15T21:37:08;18.50;;;13.87;;
32365;SDS011;18837;46.832;16.838;2022-11-15T21:39:36;18.63;;;13.80;;
32365;SDS011;18837;46.832;16.838;2022-11-15T21:44:52;17.83;;;14.53;;
32365;SDS011;18837;46.832;16.838;2022-11-15T21:47:17;19.50;;;15.10;;
32365;SDS011;18837;46.832;16.838;2022-11-15T21:49:43;17.50;;;13.47;;
32365;SDS011;18837;46.832;16.838;2022-11-15T21:52:09;18.97;;;14.30;;
32365;SDS011;18837;46.832;16.838;2022-11-15T21:54:35;19.20;;;14.57;;
32365;SDS011;18837;46.832;16.838;2022-11-15T22:04:01;19.57;;;15.10;;
32365;SDS011;18837;46.832;16.838;2022-11-15T22:06:27;19.13;;;14.67;;
32365;SDS011;18837;46.832;16.838;2022-11-15T22:09:02;17.17;;;13.80;;
32365;SDS011;18837;46.832;16.838;2022-11-15T22:11:29;17.00;;;14.50;;
32365;SDS011;18837;46.832;16.838;2022-11-15T22:13:57;16.63;;;13.87;;
32365;SDS011;18837;46.832;16.838;2022-11-15T22:19:27;16.37;;;12.80;;
32365;SDS011;18837;46.832;16.838;2022-11-15T22:24:37;17.93;;;13.93;;
32365;SDS011;18837;46.832;16.838;2022-11-15T22:27:16;17.83;;;13.53;;
32365;SDS011;18837;46.832;16.838;2022-11-15T22:29:44;17.63;;;14.07;;
32365;SDS011;18837;46.832;16.838;2022-11-15T22:38:48;17.63;;;14.00;;
32365;SDS011;18837;46.832;16.838;2022-11-15T22:41:17;17.13;;;13.43;;
32365;SDS011;18837;46.832;16.838;2022-11-15T22:43:45;17.50;;;13.93;;
32365;SDS011;18837;46.832;16.838;2022-11-15T22:46:31;18.90;;;13.97;;
32365;SDS011;18837;46.832;16.838;2022-11-15T22:49:18;17.97;;;14.17;;
32365;SDS011;18837;46.832;16.838;2022-11-15T22:54:57;17.23;;;13.33;;
32365;SDS011;18837;46.832;16.838;2022-11-15T22:57:34;16.07;;;13.10;;
32365;SDS011;18837;46.832;16.838;2022-11-15T23:00:15;16.43;;;13.57;;
32365;SDS011;18837;46.832;16.838;2022-11-15T23:02:44;17.20;;;13.37;;
32365;SDS011;18837;46.832;16.838;2022-11-15T23:05:23;16.70;;;13.87;;
32365;SDS011;18837;46.832;16.838;2022-11-15T23:14:34;15.00;;;12.73;;
32365;SDS011;18837;46.832;16.838;2022-11-15T23:17:02;15.93;;;12.63;;
32365;SDS011;18837;46.832;16.838;2022-11-15T23:19:28;16.60;;;13.70;;
32365;SDS011;18837;46.832;16.838;2022-11-15T23:21:54;16.50;;;13.10;;
32365;SDS011;18837;46.832;16.838;2022-11-15T23:24:38;17.00;;;12.93;;
32365;SDS011;18837;46.832;16.838;2022-11-15T23:30:15;16.27;;;13.33;;
32365;SDS011;18837;46.832;16.838;2022-11-15T23:33:00;17.37;;;13.03;;
32365;SDS011;18837;46.832;16.838;2022-11-15T23:35:51;17.20;;;13.07;;
32365;SDS011;18837;46.832;16.838;2022-11-15T23:38:18;16.87;;;12.93;;
32365;SDS011;18837;46.832;16.838;2022-11-15T23:47:28;15.47;;;12.83;;
32365;SDS011;18837;46.832;16.838;2022-11-15T23:49:54;15.50;;;12.77;;
32365;SDS011;18837;46.832;16.838;2022-11-15T23:52:19;17.87;;;13.30;;
32365;SDS011;18837;46.832;16.838;2022-11-15T23:54:47;16.50;;;13.37;;
32365;SDS011;18837;46.832;16.838;2022-11-15T23:57:13;15.43;;;12.97;;
32365;SDS011;18837;46.832;16.838;2022-11-15T23:59:40;16.77;;;14.00;;
